createdAt,value
2022-12-23T00:00:11.711Z,10.6
2022-12-23T00:01:27.993Z,10.7
2022-12-23T00:02:44.294Z,11.5
2022-12-23T00:04:00.588Z,10.6
2022-12-23T00:05:15.903Z,10.8
2022-12-23T00:06:32.181Z,10.6
2022-12-23T00:07:48.483Z,11
2022-12-23T00:09:04.784Z,10.5
2022-12-23T00:10:21.061Z,10.5
2022-12-23T00:11:37.370Z,10.6
2022-12-23T00:12:53.656Z,10.5
2022-12-23T00:14:09.961Z,10.7
2022-12-23T00:15:26.246Z,9.5
2022-12-23T00:16:42.531Z,10
2022-12-23T00:17:58.837Z,10
2022-12-23T00:19:15.119Z,10.8
2022-12-23T00:20:31.425Z,9.6
2022-12-23T00:21:46.736Z,9.7
2022-12-23T00:23:03.031Z,10
2022-12-23T00:24:19.312Z,10.3
2022-12-23T00:25:35.611Z,9.2
2022-12-23T00:26:51.905Z,10.1
2022-12-23T00:28:08.196Z,9.8
2022-12-23T00:29:24.503Z,8.8
2022-12-23T00:30:40.789Z,8.4
2022-12-23T00:31:57.092Z,9.1
2022-12-23T00:33:13.370Z,10
2022-12-23T00:34:29.663Z,9
2022-12-23T00:35:45.974Z,9.1
2022-12-23T00:37:02.263Z,8.5
2022-12-23T00:38:17.567Z,7.6
2022-12-23T00:39:33.871Z,9
2022-12-23T00:40:50.167Z,8.3
2022-12-23T00:42:06.461Z,9.7
2022-12-23T00:43:22.749Z,7.8
2022-12-23T00:44:39.039Z,8.5
2022-12-23T00:45:55.324Z,7.5
2022-12-23T00:47:11.632Z,8.2
2022-12-23T00:48:27.929Z,7.6
2022-12-23T00:49:44.223Z,8.4
2022-12-23T00:51:00.499Z,8.1
2022-12-23T00:53:33.108Z,7.8
2022-12-23T00:54:48.408Z,7.9
2022-12-23T00:57:20.996Z,7.2
2022-12-23T00:58:37.285Z,8
2022-12-23T00:59:53.586Z,9.2
2022-12-23T01:01:09.884Z,8.3
2022-12-23T01:02:26.171Z,7.9
2022-12-23T01:03:42.472Z,8.1
2022-12-23T01:04:58.754Z,7.8
2022-12-23T01:06:15.044Z,9.6
2022-12-23T01:07:31.339Z,7.2
2022-12-23T01:08:47.643Z,8.7
2022-12-23T01:10:03.933Z,9.3
2022-12-23T01:11:19.238Z,9.3
2022-12-23T01:12:35.548Z,8.1
2022-12-23T01:13:51.828Z,9.3
2022-12-23T01:15:08.122Z,9.3
2022-12-23T01:16:24.426Z,10.7
2022-12-23T01:17:40.723Z,8.8
2022-12-23T01:20:13.306Z,8.6
2022-12-23T01:22:45.889Z,8.8
2022-12-23T01:24:01.213Z,9.7
2022-12-23T01:25:16.511Z,7.2
2022-12-23T01:26:32.818Z,9.7
2022-12-23T01:27:49.110Z,8.2
2022-12-23T01:29:05.399Z,8.7
2022-12-23T01:30:21.700Z,9.7
2022-12-23T01:31:38.000Z,8.5
2022-12-23T01:32:54.277Z,9.2
2022-12-23T01:34:10.570Z,9.3
2022-12-23T01:35:26.876Z,8.3
2022-12-23T01:36:43.158Z,10.8
2022-12-23T01:37:58.482Z,12.1
2022-12-23T01:39:13.795Z,9.6
2022-12-23T01:40:30.075Z,9
2022-12-23T01:43:02.672Z,9.1
2022-12-23T01:44:18.974Z,8.8
2022-12-23T01:45:35.259Z,9.6
2022-12-23T01:46:51.549Z,8.1
2022-12-23T01:48:07.839Z,11.4
2022-12-23T01:49:24.148Z,9.5
2022-12-23T01:50:40.427Z,11.2
2022-12-23T01:51:56.739Z,10.3
2022-12-23T01:53:13.022Z,11.3
2022-12-23T01:54:29.311Z,8.5
2022-12-23T01:55:44.631Z,9.2
2022-12-23T01:57:00.931Z,8.7
2022-12-23T01:58:17.211Z,9
2022-12-23T01:59:33.504Z,9.2
2022-12-23T02:00:49.797Z,8.7
2022-12-23T02:02:06.096Z,10.1
2022-12-23T02:03:22.400Z,9.5
2022-12-23T02:04:38.695Z,10.7
2022-12-23T02:05:54.984Z,7.4
2022-12-23T02:07:11.275Z,9.5
2022-12-23T02:08:27.568Z,9.7
2022-12-23T02:09:43.852Z,8.9
2022-12-23T02:11:00.162Z,8.1
2022-12-23T02:13:31.763Z,10.1
2022-12-23T02:14:48.051Z,10.4
2022-12-23T02:16:04.354Z,10.2
2022-12-23T02:17:20.640Z,9.7
2022-12-23T02:18:36.930Z,7.2
2022-12-23T02:21:09.522Z,8.9
2022-12-23T02:22:25.823Z,8.6
2022-12-23T02:23:42.111Z,10
2022-12-23T02:24:58.398Z,9
2022-12-23T02:26:14.706Z,9
2022-12-23T02:27:31.002Z,9.5
2022-12-23T02:28:46.298Z,11.9
2022-12-23T02:30:02.601Z,9.8
2022-12-23T02:31:18.899Z,10.5
2022-12-23T02:32:35.180Z,10.9
2022-12-23T02:33:51.481Z,10.3
2022-12-23T02:35:07.765Z,9.6
2022-12-23T02:36:24.059Z,10.8
2022-12-23T02:37:40.371Z,9.9
2022-12-23T02:38:56.648Z,9.2
2022-12-23T02:40:12.950Z,9
2022-12-23T02:41:28.259Z,9.2
2022-12-23T02:42:44.555Z,11
2022-12-23T02:44:00.859Z,11.5
2022-12-23T02:45:17.140Z,9.6
2022-12-23T02:46:33.452Z,10
2022-12-23T02:47:49.735Z,9.9
2022-12-23T02:49:06.010Z,9.5
2022-12-23T02:50:22.311Z,9.3
2022-12-23T02:51:38.601Z,9.5
2022-12-23T02:52:54.895Z,9.2
2022-12-23T02:54:11.181Z,8.6
2022-12-23T02:55:27.491Z,7.8
2022-12-23T02:56:43.772Z,8.2
2022-12-23T02:57:59.087Z,9.7
2022-12-23T02:59:15.390Z,8.2
2022-12-23T03:00:31.671Z,8
2022-12-23T03:01:47.978Z,8.5
2022-12-23T03:03:04.259Z,8.8
2022-12-23T03:04:20.568Z,8.4
2022-12-23T03:05:36.865Z,10.2
2022-12-23T03:06:53.148Z,7.6
2022-12-23T03:08:09.441Z,7.6
2022-12-23T03:09:25.737Z,9.3
2022-12-23T03:10:42.039Z,8.4
2022-12-23T03:11:58.320Z,9.5
2022-12-23T03:13:14.614Z,10.5
2022-12-23T03:14:29.928Z,8.4
2022-12-23T03:15:46.227Z,10.3
2022-12-23T03:17:02.524Z,8.2
2022-12-23T03:18:18.811Z,9.4
2022-12-23T03:19:35.109Z,7.4
2022-12-23T03:20:51.412Z,8.3
2022-12-23T03:22:07.701Z,7.1
2022-12-23T03:23:23.990Z,7.2
2022-12-23T03:24:40.288Z,9.1
2022-12-23T03:25:56.577Z,9.2
2022-12-23T03:27:12.871Z,8.1
2022-12-23T03:28:29.165Z,9.4
2022-12-23T03:29:45.460Z,10.3
2022-12-23T03:31:00.780Z,9.3
2022-12-23T03:32:17.075Z,8.1
2022-12-23T03:33:33.365Z,9
2022-12-23T03:34:49.649Z,7.7
2022-12-23T03:36:05.951Z,8.9
2022-12-23T03:37:22.250Z,8.5
2022-12-23T03:38:38.546Z,9
2022-12-23T03:39:54.828Z,7.1
2022-12-23T03:41:11.129Z,6.4
2022-12-23T03:42:27.431Z,5.9
2022-12-23T03:43:43.707Z,7.7
2022-12-23T03:45:00.005Z,8.1
2022-12-23T03:46:16.312Z,7.6
2022-12-23T03:47:31.622Z,6.2
2022-12-23T03:48:47.920Z,8
2022-12-23T03:50:04.210Z,8.4
2022-12-23T03:51:20.490Z,7.8
2022-12-23T03:52:36.788Z,6.4
2022-12-23T03:53:53.076Z,6.9
2022-12-23T03:55:09.376Z,7.1
2022-12-23T03:56:25.677Z,6.7
2022-12-23T03:57:41.978Z,6
2022-12-23T03:58:58.266Z,7.7
2022-12-23T04:00:14.555Z,7.3
2022-12-23T04:01:30.856Z,6.2
2022-12-23T04:02:47.149Z,8.2
2022-12-23T04:04:02.453Z,6.7
2022-12-23T04:06:35.037Z,7.8
2022-12-23T04:07:51.349Z,6.8
2022-12-23T04:09:07.629Z,5.6
2022-12-23T04:10:23.928Z,8
2022-12-23T04:11:40.223Z,5.9
2022-12-23T04:12:56.514Z,6
2022-12-23T04:14:12.809Z,4.5
2022-12-23T04:15:29.110Z,6.2
2022-12-23T04:16:45.402Z,6.3
2022-12-23T04:18:01.691Z,5.5
2022-12-23T04:19:17.990Z,7.4
2022-12-23T04:20:34.280Z,5.8
2022-12-23T04:21:49.583Z,5.9
2022-12-23T04:23:05.892Z,6
2022-12-23T04:24:22.183Z,7.2
2022-12-23T04:25:38.481Z,5.7
2022-12-23T04:26:54.768Z,5.3
2022-12-23T04:28:11.062Z,7.1
2022-12-23T04:29:27.363Z,4.7
2022-12-23T04:30:43.653Z,5.8
2022-12-23T04:31:59.939Z,5.8
2022-12-23T04:33:16.241Z,5.7
2022-12-23T04:34:32.538Z,5.6
2022-12-23T04:35:48.825Z,5.6
2022-12-23T04:37:05.131Z,6.2
2022-12-23T04:38:20.428Z,5
2022-12-23T04:39:36.727Z,6
2022-12-23T04:40:53.019Z,6.1
2022-12-23T04:42:09.325Z,5.4
2022-12-23T04:43:25.606Z,6.1
2022-12-23T04:44:41.901Z,6.3
2022-12-23T04:45:58.193Z,6
2022-12-23T04:47:14.496Z,6.1
2022-12-23T04:48:30.779Z,5.6
2022-12-23T04:49:47.086Z,5.3
2022-12-23T04:51:03.384Z,6.1
2022-12-23T04:52:19.674Z,6.2
2022-12-23T04:53:35.960Z,5.6
2022-12-23T04:54:51.279Z,5.6
2022-12-23T04:56:07.574Z,5.1
2022-12-23T04:57:23.870Z,5.6
2022-12-23T04:58:40.154Z,6.1
2022-12-23T05:01:12.743Z,5.5
2022-12-23T05:02:29.049Z,4.7
2022-12-23T05:03:45.329Z,4.9
2022-12-23T05:05:01.636Z,4.9
2022-12-23T05:06:17.925Z,5.3
2022-12-23T05:07:34.215Z,5
2022-12-23T05:08:50.518Z,4
2022-12-23T05:10:06.798Z,5.3
2022-12-23T05:11:22.108Z,4.5
2022-12-23T05:12:38.419Z,5.2
2022-12-23T05:13:54.710Z,4.7
2022-12-23T05:15:10.997Z,5.6
2022-12-23T05:16:27.289Z,4.5
2022-12-23T05:17:43.590Z,5.2
2022-12-23T05:18:59.881Z,4.9
2022-12-23T05:20:16.174Z,5.2
2022-12-23T05:21:32.462Z,5.2
2022-12-23T05:22:48.757Z,5.1
2022-12-23T05:24:05.062Z,4.1
2022-12-23T05:25:21.347Z,4.6
2022-12-23T05:26:37.645Z,4.8
2022-12-23T05:27:52.947Z,4.7
2022-12-23T05:29:09.258Z,5
2022-12-23T05:30:25.539Z,4.3
2022-12-23T05:31:41.837Z,4.6
2022-12-23T05:32:58.140Z,5.2
2022-12-23T05:34:14.422Z,9.8
2022-12-23T05:35:30.723Z,12.2
2022-12-23T05:36:47.010Z,10.7
2022-12-23T05:38:03.299Z,11.1
2022-12-23T05:39:19.000Z,8.4
2022-12-23T05:40:35.888Z,6.8
2022-12-23T05:41:52.189Z,8
2022-12-23T05:43:08.485Z,6.9
2022-12-23T05:44:23.792Z,5.3
2022-12-23T05:46:56.379Z,6.2
2022-12-23T05:48:12.673Z,7
2022-12-23T05:49:28.970Z,5.3
2022-12-23T05:50:45.253Z,7.4
2022-12-23T05:52:01.547Z,5.3
2022-12-23T05:53:17.856Z,5.5
2022-12-23T05:54:34.143Z,5.1
2022-12-23T05:55:50.437Z,4.7
2022-12-23T05:57:06.734Z,6.8
2022-12-23T05:58:23.036Z,4.6
2022-12-23T05:59:39.315Z,5.7
2022-12-23T06:00:54.635Z,9.9
2022-12-23T06:02:10.924Z,6.2
2022-12-23T06:03:27.222Z,6
2022-12-23T06:04:43.520Z,5.4
2022-12-23T06:05:59.801Z,7.4
2022-12-23T06:07:16.103Z,6.9
2022-12-23T06:08:32.402Z,6.4
2022-12-23T06:09:48.683Z,6.7
2022-12-23T06:11:04.973Z,7.7
2022-12-23T06:12:21.283Z,7.3
2022-12-23T06:13:37.572Z,5.7
2022-12-23T06:14:53.870Z,9.2
2022-12-23T06:16:10.160Z,6.9
2022-12-23T06:17:25.463Z,4.6
2022-12-23T06:18:41.757Z,6.8
2022-12-23T06:19:58.053Z,4.4
2022-12-23T06:21:14.344Z,5.1
2022-12-23T06:22:30.633Z,5.4
2022-12-23T06:23:46.939Z,5.6
2022-12-23T06:25:03.239Z,5
2022-12-23T06:26:19.531Z,5.2
2022-12-23T06:27:35.818Z,5.6
2022-12-23T06:28:52.114Z,4.2
2022-12-23T06:30:08.409Z,4.8
2022-12-23T06:32:40.985Z,3.5
2022-12-23T06:33:56.310Z,4.5
2022-12-23T06:35:12.604Z,4
2022-12-23T06:36:28.888Z,3.8
2022-12-23T06:37:45.198Z,4
2022-12-23T06:39:01.480Z,4.7
2022-12-23T06:40:17.722Z,4.5
2022-12-23T06:41:34.019Z,5
2022-12-23T06:42:50.260Z,5
2022-12-23T06:45:22.756Z,5
2022-12-23T06:46:39.054Z,4.2
2022-12-23T06:47:55.292Z,4.5
2022-12-23T06:49:11.531Z,3.9
2022-12-23T06:50:26.791Z,4.1
2022-12-23T06:51:43.026Z,4.5
2022-12-23T06:52:59.279Z,4
2022-12-23T06:55:31.750Z,4.4
2022-12-23T06:56:47.029Z,4.7
2022-12-23T06:58:02.000Z,4.1
2022-12-23T06:59:18.509Z,4.7
2022-12-23T07:00:34.766Z,4.6
2022-12-23T07:01:50.990Z,3.9
2022-12-23T07:03:07.233Z,4.6
2022-12-23T07:05:39.725Z,4.2
2022-12-23T07:06:55.955Z,5.9
2022-12-23T07:08:12.198Z,3.9
2022-12-23T07:09:28.439Z,5
2022-12-23T07:10:44.680Z,3.8
2022-12-23T07:12:00.928Z,4.5
2022-12-23T07:13:17.156Z,4.4
2022-12-23T07:14:32.421Z,4.5
2022-12-23T07:15:48.662Z,4.8
2022-12-23T07:17:04.901Z,4.9
2022-12-23T07:18:21.138Z,4.4
2022-12-23T07:19:37.377Z,4.4
2022-12-23T07:20:53.608Z,3.9
2022-12-23T07:22:09.848Z,4.8
2022-12-23T07:23:26.102Z,4.1
2022-12-23T07:24:41.364Z,4.5
2022-12-23T07:25:56.622Z,3.8
2022-12-23T07:27:12.861Z,4.9
2022-12-23T07:28:29.098Z,4
2022-12-23T07:29:45.341Z,4
2022-12-23T07:31:01.571Z,3.9
2022-12-23T07:33:34.043Z,4
2022-12-23T07:34:50.287Z,4.1
2022-12-23T07:36:06.531Z,3.9
2022-12-23T07:37:22.782Z,5
2022-12-23T07:38:39.008Z,6.9
2022-12-23T07:39:55.255Z,7.5
2022-12-23T07:41:11.494Z,5.9
2022-12-23T07:42:26.755Z,6.7
2022-12-23T07:43:42.989Z,7.4
2022-12-23T07:44:59.225Z,6.9
2022-12-23T07:46:15.466Z,3.8
2022-12-23T07:48:47.947Z,4.3
2022-12-23T07:50:03.202Z,5
2022-12-23T07:51:18.461Z,5.4
2022-12-23T07:52:34.703Z,6.3
2022-12-23T07:53:50.948Z,6.1
2022-12-23T07:55:07.178Z,4.7
2022-12-23T07:56:23.420Z,5.7
2022-12-23T07:57:39.664Z,6
2022-12-23T07:58:55.911Z,5.5
2022-12-23T08:00:12.151Z,4.8
2022-12-23T08:01:28.391Z,4.3
2022-12-23T08:02:44.635Z,5.2
2022-12-23T08:03:59.888Z,5.6
2022-12-23T08:05:15.140Z,4.5
2022-12-23T08:06:31.395Z,4.2
2022-12-23T08:07:47.632Z,4.8
2022-12-23T08:09:03.863Z,4.6
2022-12-23T08:10:20.107Z,4.1
2022-12-23T08:11:36.344Z,3.7
2022-12-23T08:12:52.576Z,4.3
2022-12-23T08:14:08.828Z,4.5
2022-12-23T08:15:25.058Z,4.5
2022-12-23T08:16:41.302Z,3.9
2022-12-23T08:17:57.542Z,3.8
2022-12-23T08:19:13.790Z,4.3
2022-12-23T08:20:30.032Z,3.8
2022-12-23T08:21:45.273Z,3.9
2022-12-23T08:23:01.528Z,4.3
2022-12-23T08:24:17.759Z,3.9
2022-12-23T08:26:50.236Z,4.4
2022-12-23T08:28:06.483Z,4.3
2022-12-23T08:29:22.715Z,3.4
2022-12-23T08:30:38.971Z,3.6
2022-12-23T08:31:55.210Z,3.7
2022-12-23T08:33:11.431Z,4.2
2022-12-23T08:34:27.678Z,3.7
2022-12-23T08:35:43.931Z,3.9
2022-12-23T08:37:00.163Z,4
2022-12-23T08:38:15.422Z,3.8
2022-12-23T08:39:31.666Z,4.5
2022-12-23T08:40:47.902Z,4.1
2022-12-23T08:42:04.135Z,4.3
2022-12-23T08:43:20.380Z,4.6
2022-12-23T08:44:36.626Z,3.9
2022-12-23T08:45:52.863Z,3.9
2022-12-23T08:47:09.104Z,4.8
2022-12-23T08:48:25.328Z,5.6
2022-12-23T08:49:41.579Z,4.7
2022-12-23T08:50:57.817Z,4.2
2022-12-23T08:52:14.066Z,4.5
2022-12-23T08:53:30.296Z,3.6
2022-12-23T08:54:45.546Z,4.5
2022-12-23T08:56:01.787Z,4.1
2022-12-23T08:57:18.037Z,4.1
2022-12-23T08:59:50.509Z,4.3
2022-12-23T09:01:06.746Z,4.3
2022-12-23T09:02:22.986Z,4.3
2022-12-23T09:03:39.228Z,4.4
2022-12-23T09:04:55.478Z,4.9
2022-12-23T09:06:11.724Z,4.6
2022-12-23T09:07:27.950Z,5.1
2022-12-23T09:08:44.180Z,4.5
2022-12-23T09:10:00.429Z,4.7
2022-12-23T09:11:15.683Z,5.2
2022-12-23T09:12:31.933Z,4.2
2022-12-23T09:13:48.172Z,4.8
2022-12-23T09:15:04.413Z,4.6
2022-12-23T09:16:20.652Z,4.9
2022-12-23T09:17:36.895Z,5.1
2022-12-23T09:18:53.129Z,5.2
2022-12-23T09:20:09.371Z,5.1
2022-12-23T09:21:25.616Z,5.3
2022-12-23T09:22:41.847Z,5.2
2022-12-23T09:23:58.076Z,5.2
2022-12-23T09:25:14.325Z,5.2
2022-12-23T09:26:30.556Z,5.7
2022-12-23T09:27:45.811Z,5.4
2022-12-23T09:29:02.060Z,5.5
2022-12-23T09:30:18.306Z,6.2
2022-12-23T09:31:34.547Z,5.6
2022-12-23T09:32:50.777Z,6.7
2022-12-23T09:34:07.020Z,5.9
2022-12-23T09:35:23.267Z,6.8
2022-12-23T09:36:39.509Z,6.4
2022-12-23T09:37:55.730Z,7.6
2022-12-23T09:39:11.974Z,6.8
2022-12-23T09:40:28.226Z,7.3
2022-12-23T09:43:00.694Z,5.7
2022-12-23T09:44:15.945Z,5.8
2022-12-23T09:45:32.196Z,5.8
2022-12-23T09:46:48.427Z,5.9
2022-12-23T09:48:04.679Z,5.9
2022-12-23T09:49:20.922Z,5.7
2022-12-23T09:50:37.154Z,5.6
2022-12-23T09:51:53.399Z,5
2022-12-23T09:53:09.641Z,5.6
2022-12-23T09:54:25.870Z,5.2
2022-12-23T09:55:42.105Z,5.4
2022-12-23T09:58:14.593Z,5.3
2022-12-23T09:59:30.829Z,6
2022-12-23T10:00:46.081Z,5.6
2022-12-23T10:02:02.331Z,5.4
2022-12-23T10:03:18.564Z,5.9
2022-12-23T10:04:34.802Z,5.4
2022-12-23T10:05:51.043Z,5.1
2022-12-23T10:07:07.287Z,5.7
2022-12-23T10:08:23.531Z,5.4
2022-12-23T10:09:39.770Z,5.8
2022-12-23T10:10:56.002Z,5.1
2022-12-23T10:13:28.478Z,5.8
2022-12-23T10:14:44.720Z,5.1
2022-12-23T10:16:00.965Z,5.7
2022-12-23T10:17:16.224Z,5.4
2022-12-23T10:18:32.451Z,5.1
2022-12-23T10:19:48.696Z,5.4
2022-12-23T10:21:04.947Z,5.8
2022-12-23T10:23:37.428Z,5.4
2022-12-23T10:24:52.687Z,5.4
2022-12-23T10:26:07.948Z,4.9
2022-12-23T10:27:24.170Z,6
2022-12-23T10:28:40.424Z,5.4
2022-12-23T10:29:56.659Z,5.7
2022-12-23T10:31:12.907Z,6
2022-12-23T10:32:29.134Z,5.9
2022-12-23T10:33:45.373Z,5.3
2022-12-23T10:35:01.619Z,5.3
2022-12-23T10:36:17.848Z,5.8
2022-12-23T10:37:34.000Z,6.1
2022-12-23T10:38:49.367Z,5.5
2022-12-23T10:40:04.606Z,5.1
2022-12-23T10:41:20.849Z,6
2022-12-23T10:42:37.094Z,5.5
2022-12-23T10:43:53.338Z,5.1
2022-12-23T10:45:09.575Z,5
2022-12-23T10:46:25.818Z,5.4
2022-12-23T10:47:42.046Z,5.7
2022-12-23T10:48:58.297Z,5.3
2022-12-23T10:50:14.538Z,5.3
2022-12-23T10:51:30.781Z,6.2
2022-12-23T10:52:47.011Z,6.1
2022-12-23T10:54:03.256Z,5.1
2022-12-23T10:55:19.502Z,6.3
2022-12-23T10:56:34.757Z,6.7
2022-12-23T10:57:50.978Z,5.7
2022-12-23T10:59:07.228Z,5.2
2022-12-23T11:00:23.469Z,5.9
2022-12-23T11:01:39.708Z,5.8
2022-12-23T11:02:55.953Z,5
2022-12-23T11:04:12.186Z,6.2
2022-12-23T11:05:28.433Z,5.5
2022-12-23T11:06:44.660Z,5.4
2022-12-23T11:08:00.910Z,5.5
2022-12-23T11:09:17.146Z,5
2022-12-23T11:10:33.378Z,5.5
2022-12-23T11:11:48.644Z,6.1
2022-12-23T11:13:04.888Z,5.7
2022-12-23T11:14:21.134Z,7
2022-12-23T11:15:37.369Z,5.6
2022-12-23T11:16:53.606Z,6
2022-12-23T11:18:09.857Z,5.8
2022-12-23T11:19:26.084Z,6.3
2022-12-23T11:21:58.565Z,5.2
2022-12-23T11:23:14.805Z,6.1
2022-12-23T11:24:31.048Z,5.5
2022-12-23T11:25:47.288Z,5.4
2022-12-23T11:27:03.521Z,5.6
2022-12-23T11:28:19.763Z,6.3
2022-12-23T11:29:35.018Z,5.6
2022-12-23T11:30:51.268Z,5.8
2022-12-23T11:32:07.503Z,5.1
2022-12-23T11:33:23.746Z,5.6
2022-12-23T11:34:39.971Z,5.8
2022-12-23T11:35:56.216Z,6.6
2022-12-23T11:37:12.455Z,5.4
2022-12-23T11:38:28.709Z,5.6
2022-12-23T11:39:44.941Z,5.4
2022-12-23T11:41:01.186Z,5.5
2022-12-23T11:42:17.418Z,6
2022-12-23T11:43:33.665Z,5.7
2022-12-23T11:44:49.890Z,5.7
2022-12-23T11:46:05.147Z,5.4
2022-12-23T11:47:21.382Z,6.2
2022-12-23T11:48:37.640Z,5.9
2022-12-23T11:49:53.876Z,6
2022-12-23T11:51:10.103Z,5.5
2022-12-23T11:52:26.355Z,5.4
2022-12-23T11:53:42.601Z,5.6
2022-12-23T11:54:58.842Z,5.7
2022-12-23T11:56:15.075Z,5.8
2022-12-23T11:57:31.312Z,5.2
2022-12-23T11:58:47.546Z,5.8
2022-12-23T12:00:03.783Z,6.2
2022-12-23T12:01:20.043Z,5.6
2022-12-23T12:02:35.281Z,6.1
2022-12-23T12:03:51.531Z,5.9
2022-12-23T12:05:07.768Z,5.6
2022-12-23T12:06:24.004Z,5.9
2022-12-23T12:07:40.254Z,5.9
2022-12-23T12:08:56.488Z,5.6
2022-12-23T12:10:12.736Z,6.2
2022-12-23T12:11:28.978Z,5.7
2022-12-23T12:12:45.206Z,6.4
2022-12-23T12:15:17.697Z,7
2022-12-23T12:16:33.935Z,6.3
2022-12-23T12:17:50.160Z,7.2
2022-12-23T12:19:06.399Z,7.6
2022-12-23T12:20:21.664Z,6.8
2022-12-23T12:21:37.903Z,4.9
2022-12-23T12:22:54.153Z,6.5
2022-12-23T12:24:10.389Z,6.4
2022-12-23T12:25:26.628Z,7.9
2022-12-23T12:26:42.873Z,6.4
2022-12-23T12:27:59.098Z,5.7
2022-12-23T12:29:15.350Z,6.5
2022-12-23T12:30:31.587Z,6.3
2022-12-23T12:31:47.821Z,6.2
2022-12-23T12:33:04.068Z,6.2
2022-12-23T12:34:20.294Z,6.4
2022-12-23T12:35:36.549Z,5.7
2022-12-23T12:38:08.049Z,5.7
2022-12-23T12:39:24.275Z,6.2
2022-12-23T12:40:40.513Z,5.7
2022-12-23T12:41:56.763Z,5.2
2022-12-23T12:43:12.995Z,5.5
2022-12-23T12:44:29.246Z,5.4
2022-12-23T12:45:45.473Z,5.5
2022-12-23T12:47:01.719Z,6.1
2022-12-23T12:48:17.963Z,5.9
2022-12-23T12:49:34.197Z,5.2
2022-12-23T12:50:50.438Z,5.3
2022-12-23T12:52:06.673Z,5.5
2022-12-23T12:53:22.911Z,6.6
2022-12-23T12:54:38.179Z,5
2022-12-23T12:55:54.420Z,8.6
2022-12-23T12:57:10.648Z,8
2022-12-23T12:58:26.896Z,8.3
2022-12-23T12:59:43.138Z,8.9
2022-12-23T13:00:59.368Z,9.1
2022-12-23T13:02:15.613Z,9.3
2022-12-23T13:03:31.858Z,9.5
2022-12-23T13:04:48.088Z,8.6
2022-12-23T13:06:04.327Z,8.2
2022-12-23T13:08:36.816Z,7
2022-12-23T13:09:53.044Z,5.7
2022-12-23T13:11:08.300Z,6.1
2022-12-23T13:12:24.558Z,6.3
2022-12-23T13:13:40.789Z,7
2022-12-23T13:14:57.026Z,6.4
2022-12-23T13:16:13.270Z,6.1
2022-12-23T13:17:29.516Z,6.4
2022-12-23T13:18:45.754Z,6.5
2022-12-23T13:20:01.990Z,6.9
2022-12-23T13:21:18.236Z,6.2
2022-12-23T13:23:50.703Z,5.8
2022-12-23T13:25:06.936Z,6.3
2022-12-23T13:26:23.178Z,6
2022-12-23T13:27:39.422Z,7.3
2022-12-23T13:28:54.674Z,7.8
2022-12-23T13:31:27.159Z,7.8
2022-12-23T13:32:42.430Z,7.2
2022-12-23T13:33:57.678Z,9.2
2022-12-23T13:35:13.913Z,8.8
2022-12-23T13:36:30.154Z,9
2022-12-23T13:37:46.409Z,9.4
2022-12-23T13:39:02.633Z,9.4
2022-12-23T13:40:18.886Z,9.4
2022-12-23T13:41:35.112Z,9.3
2022-12-23T13:42:51.352Z,8.5
2022-12-23T13:44:07.604Z,9.9
2022-12-23T13:45:23.845Z,10
2022-12-23T13:46:39.089Z,8.7
2022-12-23T13:47:55.336Z,9
2022-12-23T13:49:10.603Z,9.1
2022-12-23T13:50:26.828Z,7.6
2022-12-23T13:51:43.076Z,7.1
2022-12-23T13:54:15.560Z,7.6
2022-12-23T13:55:31.799Z,7.2
2022-12-23T13:56:48.034Z,6.8
2022-12-23T13:58:04.280Z,6.6
2022-12-23T13:59:20.522Z,8.5
2022-12-23T14:01:52.999Z,6.9
2022-12-23T14:03:08.250Z,7.6
2022-12-23T14:04:23.509Z,8.1
2022-12-23T14:05:39.755Z,6.9
2022-12-23T14:06:55.992Z,7.8
2022-12-23T14:09:28.478Z,6.5
2022-12-23T14:10:44.704Z,6.5
2022-12-23T14:12:00.946Z,6.7
2022-12-23T14:13:17.200Z,6.8
2022-12-23T14:14:33.434Z,6.9
2022-12-23T14:15:49.669Z,7.8
2022-12-23T14:17:05.910Z,7.3
2022-12-23T14:18:22.145Z,7.9
2022-12-23T14:19:38.384Z,8.2
2022-12-23T14:20:53.655Z,7.4
2022-12-23T14:22:09.897Z,7.4
2022-12-23T14:23:26.118Z,7.4
2022-12-23T14:24:42.360Z,7.6
2022-12-23T14:25:58.604Z,6.7
2022-12-23T14:27:14.845Z,7.2
2022-12-23T14:28:31.081Z,6.3
2022-12-23T14:29:47.327Z,6.1
2022-12-23T14:31:02.579Z,5.1
2022-12-23T14:32:17.854Z,5.8
2022-12-23T14:33:34.077Z,6
2022-12-23T14:34:50.325Z,5.8
2022-12-23T14:36:06.556Z,6
2022-12-23T14:37:22.802Z,6.3
2022-12-23T14:38:39.035Z,6.2
2022-12-23T14:39:55.275Z,5.5
2022-12-23T14:41:11.513Z,5.8
2022-12-23T14:42:27.759Z,6.6
2022-12-23T14:43:44.001Z,6.8
2022-12-23T14:45:00.235Z,7.6
2022-12-23T14:46:16.485Z,6.6
2022-12-23T14:47:32.726Z,6.9
2022-12-23T14:48:49.081Z,6.8
2022-12-23T14:50:05.322Z,5.9
2022-12-23T14:51:21.559Z,6
2022-12-23T14:52:37.807Z,6
2022-12-23T14:53:54.049Z,6.1
2022-12-23T14:55:10.293Z,6.3
2022-12-23T14:56:26.515Z,6.7
2022-12-23T14:57:42.759Z,6.5
2022-12-23T14:58:59.010Z,6.8
2022-12-23T15:00:15.244Z,6.6
2022-12-23T15:01:31.484Z,6.5
2022-12-23T15:02:47.724Z,6.2
2022-12-23T15:04:03.967Z,7
2022-12-23T15:05:19.220Z,7
2022-12-23T15:06:35.469Z,7
2022-12-23T15:09:07.933Z,7.3
2022-12-23T15:10:24.176Z,7.3
2022-12-23T15:11:40.427Z,7.5
2022-12-23T15:12:56.666Z,6.7
2022-12-23T15:14:12.911Z,7.1
2022-12-23T15:15:29.131Z,7.5
2022-12-23T15:16:45.381Z,8.5
2022-12-23T15:18:01.615Z,8.4
2022-12-23T15:19:17.864Z,7.4
2022-12-23T15:20:34.103Z,9.1
2022-12-23T15:21:49.348Z,8.4
2022-12-23T15:23:05.598Z,8.2
2022-12-23T15:24:21.847Z,8.1
2022-12-23T15:26:54.309Z,8.4
2022-12-23T15:28:09.580Z,9
2022-12-23T15:29:25.823Z,9
2022-12-23T15:30:42.052Z,9.3
2022-12-23T15:31:58.294Z,8.5
2022-12-23T15:33:14.531Z,9.4
2022-12-23T15:34:30.841Z,9.3
2022-12-23T15:35:47.000Z,10.7
2022-12-23T15:37:03.429Z,10.3
2022-12-23T15:38:19.721Z,9.4
2022-12-23T15:39:36.016Z,9.8
2022-12-23T15:40:52.313Z,9.6
2022-12-23T15:42:08.604Z,9.1
2022-12-23T15:43:24.899Z,9.4
2022-12-23T15:44:40.190Z,10.8
2022-12-23T15:45:56.493Z,9.3
2022-12-23T15:47:12.795Z,9.8
2022-12-23T15:48:29.086Z,10.1
2022-12-23T15:49:45.382Z,10.7
2022-12-23T15:51:01.666Z,10
2022-12-23T15:52:17.968Z,10.2
2022-12-23T15:53:34.262Z,9.4
2022-12-23T15:54:50.560Z,10.2
2022-12-23T15:56:06.849Z,9.1
2022-12-23T15:57:23.132Z,9.5
2022-12-23T15:58:39.425Z,9.3
2022-12-23T15:59:55.727Z,9.9
2022-12-23T16:01:11.042Z,9.9
2022-12-23T16:03:43.617Z,9.5
2022-12-23T16:04:59.923Z,10
2022-12-23T16:06:16.204Z,29.4
2022-12-23T16:07:32.514Z,44.4
2022-12-23T16:08:48.814Z,58.3
2022-12-23T16:10:05.090Z,69.3
2022-12-23T16:11:21.392Z,76.9
2022-12-23T16:12:37.690Z,82.6
2022-12-23T16:13:53.970Z,91.2
2022-12-23T16:15:10.269Z,95.8
2022-12-23T16:17:42.862Z,102.3
2022-12-23T16:18:58.160Z,94.5
2022-12-23T16:20:14.466Z,68.4
2022-12-23T16:21:30.758Z,60.6
2022-12-23T16:22:47.045Z,42.7
2022-12-23T16:24:03.353Z,32.4
2022-12-23T16:25:19.638Z,21.5
2022-12-23T16:26:35.932Z,19
2022-12-23T16:27:52.230Z,15
2022-12-23T16:29:08.510Z,12.1
2022-12-23T16:30:24.818Z,12.2
2022-12-23T16:31:41.110Z,11.3
2022-12-23T16:32:57.397Z,12.1
2022-12-23T16:34:13.694Z,11.5
2022-12-23T16:35:29.002Z,11.4
2022-12-23T16:36:45.304Z,14
2022-12-23T16:38:01.599Z,12.8
2022-12-23T16:39:17.895Z,11.6
2022-12-23T16:41:50.438Z,13.4
2022-12-23T16:43:06.734Z,12
2022-12-23T16:44:23.011Z,11.8
2022-12-23T16:45:39.311Z,11.6
2022-12-23T16:46:55.613Z,11.2
2022-12-23T16:48:11.904Z,11
2022-12-23T16:49:28.192Z,10.9
2022-12-23T16:50:44.495Z,11.2
2022-12-23T16:51:59.791Z,11.8
2022-12-23T16:53:16.085Z,10.7
2022-12-23T16:54:32.385Z,12.7
2022-12-23T16:55:48.671Z,11.2
2022-12-23T16:57:04.982Z,10.9
2022-12-23T16:58:21.270Z,12.1
2022-12-23T16:59:37.552Z,12.1
2022-12-23T17:00:53.865Z,12
2022-12-23T17:02:10.147Z,10.9
2022-12-23T17:03:26.445Z,11.4
2022-12-23T17:04:42.727Z,11.1
2022-12-23T17:05:59.038Z,10.9
2022-12-23T17:07:15.335Z,11.5
2022-12-23T17:08:30.633Z,12.4
2022-12-23T17:09:46.919Z,12.4
2022-12-23T17:11:03.220Z,12.2
2022-12-23T17:12:19.525Z,11.4
2022-12-23T17:13:35.810Z,13.1
2022-12-23T17:14:52.103Z,13.4
2022-12-23T17:16:08.407Z,14
2022-12-23T17:17:24.691Z,14
2022-12-23T17:18:40.978Z,14.1
2022-12-23T17:19:57.289Z,14.3
2022-12-23T17:21:13.582Z,17.4
2022-12-23T17:22:29.862Z,15.1
2022-12-23T17:23:46.163Z,15.9
2022-12-23T17:25:01.472Z,14.6
2022-12-23T17:26:17.767Z,14.1
2022-12-23T17:27:34.059Z,16.1
2022-12-23T17:28:50.351Z,14.7
2022-12-23T17:30:06.645Z,13.5
2022-12-23T17:31:22.934Z,13.7
2022-12-23T17:32:39.234Z,12.7
2022-12-23T17:33:55.527Z,14.1
2022-12-23T17:35:11.816Z,14.5
2022-12-23T17:36:28.111Z,14
2022-12-23T17:37:44.414Z,15.7
2022-12-23T17:39:00.704Z,17.4
2022-12-23T17:42:49.593Z,15.8
2022-12-23T17:44:04.898Z,14.4
2022-12-23T17:45:21.194Z,13.6
2022-12-23T17:46:37.482Z,13.4
2022-12-23T17:47:53.770Z,13.7
2022-12-23T17:49:10.064Z,12.6
2022-12-23T17:50:26.375Z,11.6
2022-12-23T17:51:42.663Z,11.6
2022-12-23T17:52:58.954Z,12.7
2022-12-23T17:54:15.255Z,10.6
2022-12-23T17:55:31.546Z,10.8
2022-12-23T17:56:47.833Z,10.3
2022-12-23T17:58:04.122Z,11.7
2022-12-23T17:59:20.425Z,11.2
2022-12-23T18:00:35.730Z,10.7
2022-12-23T18:01:52.028Z,10.3
2022-12-23T18:03:08.329Z,10.7
2022-12-23T18:04:24.609Z,11.1
2022-12-23T18:05:40.906Z,11
2022-12-23T18:06:57.209Z,10.7
2022-12-23T18:08:13.493Z,10.9
2022-12-23T18:09:29.793Z,10.7
2022-12-23T18:10:46.086Z,13.5
2022-12-23T18:12:02.383Z,11.9
2022-12-23T18:13:18.667Z,13.1
2022-12-23T18:14:34.961Z,10.7
2022-12-23T18:15:51.270Z,11.9
2022-12-23T18:17:06.576Z,11.7